Time;durP1;ratioP1;P1;durP2;ratioP2;P2;SDS_P1;SDS_P2;PMS_P1;PMS_P2;Temp;Humidity;BMP_temperature;BMP_pressure;BME280_temperature;BME280_humidity;BME280_pressure;Samples;Min_cycle;Max_cycle;Signal;HPM_P1;HPM_P2
2021/12/13 00:00:26;;;;;;;;;;;;;;;26.56;59.39;97059.10;610462;232;65055;-70
2021/12/13 00:02:55;;;;;;;;;;;;;;;26.57;60.13;97052.59;610363;232;67129;-70
2021/12/13 00:05:27;;;;;;;;;;;;;;;26.54;60.08;97055.91;603888;232;64205;-70
2021/12/13 00:07:56;;;;;;;;;;;;;;;26.52;60.08;97061.63;610500;232;65104;-70
2021/12/13 00:10:26;;;;;;;;;;;;;;;26.53;59.64;97057.81;610411;232;64725;-70
2021/12/13 00:12:55;;;;;;;;;;;;;;;26.52;60.80;97050.05;610339;232;64774;-70
2021/12/13 00:15:27;;;;;;;;;;;;;;;26.50;60.22;97063.00;610315;232;62929;-70
2021/12/13 00:17:55;;;;;;;;;;;;;;;26.50;60.18;97060.30;610246;232;67031;-71
2021/12/13 00:20:28;;;;;;;;;;;;;;;26.48;61.82;97049.02;610494;232;66591;-71
2021/12/13 00:22:55;;;;;;;;;;;;;;;26.46;62.30;97068.18;610288;232;65054;-71
2021/12/13 00:25:23;;;;;;;;;;;;;;;26.43;64.98;97062.62;610468;232;64879;-71
2021/12/13 00:28:02;;;;;;;;;;;;;;;26.41;62.19;97067.50;610356;232;65085;-71
2021/12/13 00:30:47;;;;;;;;;;;;;;;26.41;61.51;97062.12;610336;232;62699;-71
2021/12/13 00:33:35;;;;;;;;;;;;;;;26.37;61.90;97059.25;610422;230;65966;-71
2021/12/13 00:36:04;;;;;;;;;;;;;;;26.35;61.90;97064.95;610406;232;64750;-71
2021/12/13 00:38:33;;;;;;;;;;;;;;;26.37;62.55;97059.25;608103;232;63204;-71
2021/12/13 00:41:02;;;;;;;;;;;;;;;26.37;61.83;97063.84;610456;232;67017;-71
2021/12/13 00:43:31;;;;;;;;;;;;;;;26.34;62.74;97060.65;610466;232;67012;-72
2021/12/13 00:46:00;;;;;;;;;;;;;;;26.34;62.89;97057.95;610336;232;65009;-71
2021/12/13 00:48:29;;;;;;;;;;;;;;;26.33;60.50;97056.38;610461;232;66523;-71
2021/12/13 00:51:07;;;;;;;;;;;;;;;26.33;61.74;97053.67;610425;232;66989;-71
2021/12/13 00:53:36;;;;;;;;;;;;;;;26.30;62.63;97051.59;610479;232;64932;-71
2021/12/13 00:56:05;;;;;;;;;;;;;;;26.30;62.40;97056.98;610461;232;65322;-70
2021/12/13 00:58:32;;;;;;;;;;;;;;;26.28;63.84;97061.08;609429;232;64932;-71
2021/12/13 01:01:01;;;;;;;;;;;;;;;26.27;63.82;97052.21;610485;232;62746;-71
2021/12/13 01:03:30;;;;;;;;;;;;;;;26.26;62.89;97047.11;610473;232;66979;-71
2021/12/13 01:06:02;;;;;;;;;;;;;;;26.27;63.76;97046.00;610346;232;66868;-67
2021/12/13 01:08:48;;;;;;;;;;;;;;;26.23;63.53;97040.44;610500;232;65121;-67
2021/12/13 01:11:33;;;;;;;;;;;;;;;26.24;63.34;97041.22;610497;232;66771;-68
2021/12/13 01:14:08;;;;;;;;;;;;;;;26.22;62.39;97038.03;610460;232;64659;-66
2021/12/13 01:16:54;;;;;;;;;;;;;;;26.20;62.29;97029.48;610292;232;62991;-68
2021/12/13 01:19:30;;;;;;;;;;;;;;;26.22;62.50;97033.47;610307;232;64663;-66
2021/12/13 01:22:01;;;;;;;;;;;;;;;26.28;62.04;97034.94;610443;232;66650;-67
2021/12/13 01:27:18;;;;;;;;;;;;;;;26.37;62.94;97028.81;603309;235;64392;-67
2021/12/13 01:29:46;;;;;;;;;;;;;;;26.34;62.50;97025.62;602916;235;66623;-67
2021/12/13 01:32:16;;;;;;;;;;;;;;;26.32;62.37;97025.12;603122;235;65032;-67
2021/12/13 01:34:45;;;;;;;;;;;;;;;26.33;62.25;97021.34;603240;235;64591;-70
2021/12/13 01:37:17;;;;;;;;;;;;;;;26.31;63.42;97033.53;603274;235;64140;-71
2021/12/13 01:39:46;;;;;;;;;;;;;;;26.33;62.45;97025.95;608543;232;63023;-71
2021/12/13 01:42:18;;;;;;;;;;;;;;;26.27;61.15;97037.92;610333;232;66945;-71
2021/12/13 01:44:47;;;;;;;;;;;;;;;26.30;63.23;97038.13;610433;232;67126;-71
2021/12/13 01:47:17;;;;;;;;;;;;;;;26.29;61.66;97038.42;610453;232;65034;-71
2021/12/13 01:49:46;;;;;;;;;;;;;;;26.30;61.75;97031.92;610449;232;64893;-71
2021/12/13 01:52:18;;;;;;;;;;;;;;;26.30;61.42;97031.92;610233;232;64589;-71
2021/12/13 01:54:46;;;;;;;;;;;;;;;26.25;61.29;97032.06;610195;232;65124;-70
2021/12/13 02:00:02;;;;;;;;;;;;;;;26.27;63.07;97027.97;610452;232;66943;-71
2021/12/13 02:02:25;;;;;;;;;;;;;;;26.27;64.38;97035.23;610172;232;65138;-72
2021/12/13 02:05:07;;;;;;;;;;;;;;;26.15;61.80;97030.38;610407;232;66749;-71
2021/12/13 02:07:47;;;;;;;;;;;;;;;26.09;65.04;97032.40;610440;232;67005;-70
2021/12/13 02:10:17;;;;;;;;;;;;;;;26.05;63.07;97030.61;610376;232;62703;-71
2021/12/13 02:12:46;;;;;;;;;;;;;;;26.02;62.59;97037.39;610008;232;65179;-71
2021/12/13 02:18:01;;;;;;;;;;;;;;;26.01;63.97;97035.02;610458;232;65445;-71
2021/12/13 02:20:29;;;;;;;;;;;;;;;26.01;64.83;97027.73;610437;232;67044;-71
2021/12/13 02:22:57;;;;;;;;;;;;;;;25.99;67.08;97032.62;610405;232;67088;-71
2021/12/13 02:25:26;;;;;;;;;;;;;;;25.99;65.46;97032.62;610432;232;65213;-71
2021/12/13 02:27:58;;;;;;;;;;;;;;;25.99;63.14;97031.83;610235;232;67064;-71
2021/12/13 02:30:29;;;;;;;;;;;;;;;26.00;63.55;97039.61;610445;232;67202;-71
2021/12/13 02:32:57;;;;;;;;;;;;;;;26.00;62.18;97036.92;610454;232;62814;-70
2021/12/13 02:35:26;;;;;;;;;;;;;;;26.02;63.54;97041.98;610421;232;67063;-70
2021/12/13 02:37:54;;;;;;;;;;;;;;;26.04;66.11;97045.97;610401;232;64773;-70
2021/12/13 02:40:22;;;;;;;;;;;;;;;26.01;63.31;97053.87;610477;232;62823;-70
2021/12/13 02:42:51;;;;;;;;;;;;;;;25.98;63.25;97049.09;610464;232;67252;-70
2021/12/13 02:45:25;;;;;;;;;;;;;;;25.99;64.02;97045.29;610472;232;67089;-71
2021/12/13 02:47:53;;;;;;;;;;;;;;;26.02;64.79;97048.16;610414;232;60841;-72
2021/12/13 02:50:28;;;;;;;;;;;;;;;25.98;62.98;97057.17;610394;232;67040;-72
2021/12/13 02:52:57;;;;;;;;;;;;;;;26.01;64.84;97056.56;610386;232;66899;-71
2021/12/13 02:55:28;;;;;;;;;;;;;;;25.99;64.96;97047.98;610473;232;65049;-71
2021/12/13 02:57:57;;;;;;;;;;;;;;;25.99;64.74;97048.77;609545;232;67010;-70
2021/12/13 03:00:29;;;;;;;;;;;;;;;25.95;62.17;97057.78;609020;233;67424;-70
2021/12/13 03:02:58;;;;;;;;;;;;;;;25.93;63.46;97057.28;609016;233;62715;-70
2021/12/13 03:05:30;;;;;;;;;;;;;;;25.95;64.68;97055.09;609016;233;67243;-70
2021/12/13 03:07:59;;;;;;;;;;;;;;;25.95;64.24;97057.78;609098;233;66939;-72
2021/12/13 03:10:30;;;;;;;;;;;;;;;25.92;64.08;97056.48;609095;233;64984;-72
2021/12/13 03:12:58;;;;;;;;;;;;;;;25.91;64.02;97061.05;608496;233;67152;-70
2021/12/13 03:15:27;;;;;;;;;;;;;;;25.88;63.88;97075.12;609054;233;66990;-70
2021/12/13 03:17:56;;;;;;;;;;;;;;;25.90;63.72;97072.93;609033;232;64899;-70
2021/12/13 03:20:33;;;;;;;;;;;;;;;25.87;65.13;97073.53;608958;233;66688;-71
2021/12/13 03:23:14;;;;;;;;;;;;;;;25.84;63.15;97076.83;608907;233;64910;-71
2021/12/13 03:25:43;;;;;;;;;;;;;;;25.87;64.42;97073.53;609064;232;64907;-70
2021/12/13 03:28:15;;;;;;;;;;;;;;;25.85;65.33;97073.03;609075;233;67493;-71
2021/12/13 03:30:56;;;;;;;;;;;;;;;25.82;66.71;97068.22;609057;233;67105;-71
2021/12/13 03:33:25;;;;;;;;;;;;;;;25.82;64.27;97075.50;609081;233;65238;-70
2021/12/13 03:35:55;;;;;;;;;;;;;;;25.83;64.17;97080.60;608095;233;67052;-70
2021/12/13 03:38:27;;;;;;;;;;;;;;;25.85;66.99;97086.49;609091;233;64949;-70
2021/12/13 03:40:56;;;;;;;;;;;;;;;25.79;66.76;97084.98;609117;233;62891;-70
2021/12/13 03:43:30;;;;;;;;;;;;;;;25.75;65.55;97083.97;609050;232;72026;-70
2021/12/13 03:46:01;;;;;;;;;;;;;;;25.79;64.72;97086.88;609025;233;67145;-70
2021/12/13 03:48:29;;;;;;;;;;;;;;;25.75;64.35;97083.97;609090;232;61846;-70
2021/12/13 03:50:58;;;;;;;;;;;;;;;25.74;63.72;97089.67;609020;233;67083;-70
2021/12/13 03:53:27;;;;;;;;;;;;;;;25.78;65.27;97088.78;609111;233;66869;-68
2021/12/13 03:55:56;;;;;;;;;;;;;;;25.74;64.24;97089.67;609149;233;65032;-67
2021/12/13 03:58:24;;;;;;;;;;;;;;;25.73;64.75;97088.05;609036;230;64691;-67
2021/12/13 04:00:59;;;;;;;;;;;;;;;25.75;67.96;97083.17;609092;233;67069;-67
2021/12/13 04:03:28;;;;;;;;;;;;;;;25.72;64.50;97097.23;609091;233;65278;-68
2021/12/13 04:05:56;;;;;;;;;;;;;;;25.69;63.04;97087.87;609043;233;67212;-68
2021/12/13 04:08:24;;;;;;;;;;;;;;;25.70;63.75;97089.48;609151;233;64543;-68
2021/12/13 04:10:53;;;;;;;;;;;;;;;25.68;65.33;97087.08;609087;233;62751;-68
2021/12/13 04:13:22;;;;;;;;;;;;;;;25.70;66.92;97089.48;609079;233;65600;-68
2021/12/13 04:19:05;;;;;;;;;;;;;;;25.65;63.96;97079.61;609064;233;64909;-72
2021/12/13 04:21:05;;;;;;;;;;;;;;;25.65;67.08;97081.50;608043;233;67008;-72
2021/12/13 04:23:30;;;;;;;;;;;;;;;25.67;65.89;97084.67;609056;232;64824;-72
2021/12/13 04:25:59;;;;;;;;;;;;;;;25.59;64.51;97096.14;609097;233;62820;-72
2021/12/13 04:28:28;;;;;;;;;;;;;;;25.62;66.09;97090.18;609060;233;67021;-72
2021/12/13 04:30:57;;;;;;;;;;;;;;;25.62;66.95;97092.88;608900;233;64702;-72
2021/12/13 04:33:26;;;;;;;;;;;;;;;25.60;65.56;97095.06;609129;233;64850;-72
2021/12/13 04:36:01;;;;;;;;;;;;;;;25.59;65.71;97102.34;609052;232;66897;-72
2021/12/13 04:38:33;;;;;;;;;;;;;;;25.58;64.78;97099.94;609101;233;64764;-70
2021/12/13 04:41:01;;;;;;;;;;;;;;;25.58;67.05;97099.94;608194;233;63080;-70
2021/12/13 04:43:29;;;;;;;;;;;;;;;25.57;63.90;97101.83;609033;233;67388;-70
2021/12/13 04:45:58;;;;;;;;;;;;;;;25.58;68.94;97091.86;609087;233;66946;-70
2021/12/13 04:48:27;;;;;;;;;;;;;;;25.55;66.73;97097.84;609080;233;65015;-67
2021/12/13 04:51:09;;;;;;;;;;;;;;;25.55;69.05;97097.84;608858;233;67134;-67
2021/12/13 04:53:37;;;;;;;;;;;;;;;25.55;68.04;97097.84;609089;233;64829;-67
2021/12/13 04:56:06;;;;;;;;;;;;;;;25.55;66.52;97097.84;609077;233;62910;-67
2021/12/13 04:58:34;;;;;;;;;;;;;;;25.54;65.24;97098.95;610267;232;64877;-67
2021/12/13 05:01:03;;;;;;;;;;;;;;;25.49;65.02;97107.91;610447;232;66958;-67
2021/12/13 05:03:32;;;;;;;;;;;;;;;25.51;66.19;97110.28;610457;232;63125;-67
2021/12/13 05:06:01;;;;;;;;;;;;;;;25.51;67.75;97112.97;610468;232;64652;-67
2021/12/13 05:08:28;;;;;;;;;;;;;;;25.52;69.03;97115.38;610440;232;64601;-67
2021/12/13 05:10:56;;;;;;;;;;;;;;;25.52;65.02;97115.38;610450;232;63142;-67
2021/12/13 05:13:25;;;;;;;;;;;;;;;25.55;67.81;97119.37;610364;232;64845;-67
2021/12/13 05:15:54;;;;;;;;;;;;;;;25.55;65.60;97125.55;610509;230;64771;-67
2021/12/13 05:18:23;;;;;;;;;;;;;;;25.49;64.91;97125.95;610452;232;62861;-68
2021/12/13 05:20:52;;;;;;;;;;;;;;;25.47;66.89;97121.64;610403;232;64918;-68
2021/12/13 05:23:21;;;;;;;;;;;;;;;25.49;65.41;97120.56;610334;232;64242;-67
2021/12/13 05:25:56;;;;;;;;;;;;;;;25.51;66.90;97124.56;610475;232;65043;-68
2021/12/13 05:28:25;;;;;;;;;;;;;;;25.52;68.72;97126.14;610205;232;64293;-68
2021/12/13 05:30:57;;;;;;;;;;;;;;;25.55;66.43;97130.13;610468;232;67024;-68
2021/12/13 05:33:25;;;;;;;;;;;;;;;25.54;69.30;97128.55;610395;232;66014;-68
2021/12/13 05:35:54;;;;;;;;;;;;;;;25.55;67.72;97125.55;610477;232;66955;-68
2021/12/13 05:38:26;;;;;;;;;;;;;;;25.54;66.38;97132.03;610443;232;64344;-68
2021/12/13 05:40:54;;;;;;;;;;;;;;;25.54;67.09;97133.93;610200;232;64884;-68
2021/12/13 05:43:29;;;;;;;;;;;;;;;25.55;65.81;97140.90;610494;232;66600;-68
2021/12/13 05:46:01;;;;;;;;;;;;;;;25.61;67.83;97148.56;610414;232;64905;-68
2021/12/13 05:48:37;;;;;;;;;;;;;;;25.60;65.91;97146.98;609611;232;62542;-68
2021/12/13 05:51:09;;;;;;;;;;;;;;;25.62;64.46;97155.56;610420;232;64245;-68
2021/12/13 05:53:38;;;;;;;;;;;;;;;25.64;66.09;97150.66;610029;232;67034;-68
2021/12/13 05:56:07;;;;;;;;;;;;;;;25.63;63.58;97148.28;610410;232;64876;-68
2021/12/13 05:58:36;;;;;;;;;;;;;;;25.66;65.23;97156.55;608955;232;67207;-68
2021/12/13 06:01:12;;;;;;;;;;;;;;;25.69;62.98;97157.84;608993;233;67012;-68
2021/12/13 06:03:38;;;;;;;;;;;;;;;25.70;63.20;97159.47;608997;233;62835;-68
2021/12/13 06:06:13;;;;;;;;;;;;;;;25.73;65.17;97155.34;609081;233;66858;-67
2021/12/13 06:08:42;;;;;;;;;;;;;;;25.72;63.46;97161.84;609040;233;66896;-72
2021/12/13 06:11:11;;;;;;;;;;;;;;;25.73;63.25;97156.17;608836;233;64883;-71
2021/12/13 06:13:47;;;;;;;;;;;;;;;25.72;63.83;97162.63;609101;233;64948;-71
2021/12/13 06:16:21;;;;;;;;;;;;;;;25.74;63.87;97160.45;609085;233;64925;-71
2021/12/13 06:18:51;;;;;;;;;;;;;;;25.78;63.90;97174.92;608529;233;62895;-71
2021/12/13 06:21:36;;;;;;;;;;;;;;;25.79;62.85;97162.25;606452;233;64951;-71
2021/12/13 06:24:04;;;;;;;;;;;;;;;25.80;64.63;97170.02;609064;233;66918;-71
2021/12/13 06:26:32;;;;;;;;;;;;;;;25.82;65.15;97173.21;609064;233;64795;-70
2021/12/13 06:29:01;;;;;;;;;;;;;;;25.84;63.33;97171.06;609104;233;67137;-70
2021/12/13 06:31:36;;;;;;;;;;;;;;;25.83;62.92;97177.52;609079;233;67021;-70
2021/12/13 06:34:05;;;;;;;;;;;;;;;25.86;64.24;97176.95;609065;233;64987;-71
2021/12/13 06:36:34;;;;;;;;;;;;;;;25.85;64.29;97182.62;609063;233;64837;-72
2021/12/13 06:39:07;;;;;;;;;;;;;;;25.84;64.24;97176.44;609120;233;64502;-67
2021/12/13 06:41:39;;;;;;;;;;;;;;;25.84;64.79;97176.44;609025;233;65016;-67
2021/12/13 06:44:11;;;;;;;;;;;;;;;25.83;63.81;97179.39;609064;233;64953;-68
2021/12/13 06:46:43;;;;;;;;;;;;;;;25.84;63.53;97176.44;606917;233;65102;-68
2021/12/13 06:49:24;;;;;;;;;;;;;;;25.85;63.14;97175.34;609048;233;65189;-67
2021/12/13 06:51:56;;;;;;;;;;;;;;;25.87;62.74;97181.23;609110;233;64820;-67
2021/12/13 06:54:28;;;;;;;;;;;;;;;25.95;64.47;97184.33;608839;232;67046;-68
2021/12/13 06:56:57;;;;;;;;;;;;;;;25.90;62.64;97185.22;609334;232;63608;-61
2021/12/13 06:59:25;;;;;;;;;;;;;;;25.91;61.97;97184.91;610490;232;64928;-59
2021/12/13 07:01:57;;;;;;;;;;;;;;;25.85;65.98;97190.70;610295;230;67058;-66
2021/12/13 07:04:24;;;;;;;;;;;;;;;25.87;61.65;97192.00;610030;232;66427;-63
2021/12/13 07:06:52;;;;;;;;;;;;;;;25.87;64.64;97188.52;610471;232;66860;-62
2021/12/13 07:09:21;;;;;;;;;;;;;;;25.88;62.56;97190.89;604157;232;66957;-62
2021/12/13 07:11:50;;;;;;;;;;;;;;;25.87;61.96;97192.00;604379;234;62877;-62
2021/12/13 07:14:19;;;;;;;;;;;;;;;25.87;64.85;97192.00;599602;236;67105;-62
2021/12/13 07:16:52;;;;;;;;;;;;;;;25.90;62.61;97191.39;604444;234;64619;-59
2021/12/13 07:19:24;;;;;;;;;;;;;;;25.90;64.63;97188.70;599874;236;64875;-59
2021/12/13 07:21:56;;;;;;;;;;;;;;;25.96;66.23;97196.69;604393;234;64986;-67
2021/12/13 07:24:28;;;;;;;;;;;;;;;25.95;62.36;97197.80;599688;236;66928;-66
2021/12/13 07:27:04;;;;;;;;;;;;;;;25.98;63.96;97202.58;603837;234;62752;-67
2021/12/13 07:29:31;;;;;;;;;;;;;;;26.01;66.09;97199.28;599783;236;67044;-69
2021/12/13 07:32:15;;;;;;;;;;;;;;;26.00;63.25;97198.49;604411;234;64977;-70
2021/12/13 07:35:02;;;;;;;;;;;;;;;26.02;62.72;97201.66;599843;236;65098;-70
2021/12/13 07:37:34;;;;;;;;;;;;;;;26.00;61.81;97197.67;604445;232;67210;-66
2021/12/13 07:40:20;;;;;;;;;;;;;;;26.01;61.03;97199.28;599841;236;64971;-62
2021/12/13 07:42:52;;;;;;;;;;;;;;;26.03;63.30;97205.97;604511;234;66306;-63
2021/12/13 07:45:24;;;;;;;;;;;;;;;25.98;64.84;97199.89;598952;234;67063;-63
2021/12/13 07:47:51;;;;;;;;;;;;;;;26.04;61.91;97204.06;604244;234;67152;-68
2021/12/13 07:50:20;;;;;;;;;;;;;;;26.05;64.17;97213.73;599497;236;65099;-63
2021/12/13 07:52:49;;;;;;;;;;;;;;;26.06;64.16;97212.66;604443;234;64874;-59
2021/12/13 07:55:19;;;;;;;;;;;;;;;26.09;66.37;97220.13;599816;236;64554;-58
2021/12/13 07:57:48;;;;;;;;;;;;;;;26.10;63.37;97219.02;602248;234;65137;-58
2021/12/13 08:00:17;;;;;;;;;;;;;;;26.12;63.72;97231.09;597470;237;67270;-63
2021/12/13 08:02:59;;;;;;;;;;;;;;;26.11;61.36;97237.59;600481;236;67431;-63
2021/12/13 08:05:28;;;;;;;;;;;;;;;26.16;64.79;97242.06;597452;235;63037;-66
2021/12/13 08:07:59;;;;;;;;;;;;;;;26.16;63.22;97239.37;600532;236;64800;-63
2021/12/13 08:10:28;;;;;;;;;;;;;;;26.17;61.62;97243.67;597779;237;67021;-61
2021/12/13 08:12:57;;;;;;;;;;;;;;;26.23;63.23;97247.86;600469;236;63839;-62
2021/12/13 08:15:26;;;;;;;;;;;;;;;26.22;61.92;97245.45;597766;237;72606;-64
2021/12/13 08:17:55;;;;;;;;;;;;;;;26.22;65.03;97243.58;600478;234;66852;-60
2021/12/13 08:20:31;;;;;;;;;;;;;;;26.23;61.90;97247.86;597513;237;65228;-60
2021/12/13 08:22:59;;;;;;;;;;;;;;;26.29;61.06;97254.73;600448;234;64524;-64
2021/12/13 08:25:31;;;;;;;;;;;;;;;26.28;58.34;97263.93;597487;237;66878;-66
2021/12/13 08:28:00;;;;;;;;;;;;;;;26.26;57.79;97263.42;600211;236;63063;-61
2021/12/13 08:30:32;;;;;;;;;;;;;;;26.30;57.26;97264.44;597408;237;67280;-63
2021/12/13 08:33:01;;;;;;;;;;;;;;;26.34;58.13;97260.02;600505;236;67066;-62
2021/12/13 08:35:30;;;;;;;;;;;;;;;26.35;57.17;97260.82;597733;235;64920;-61
2021/12/13 08:37:59;;;;;;;;;;;;;;;26.40;58.01;97265.32;599531;236;67218;-61
2021/12/13 08:40:27;;;;;;;;;;;;;;;26.37;57.43;97265.92;597543;237;67066;-61
2021/12/13 08:42:56;;;;;;;;;;;;;;;26.41;57.29;97264.20;600423;236;64970;-61
2021/12/13 08:45:28;;;;;;;;;;;;;;;26.43;58.81;97264.72;597532;237;67193;-61
2021/12/13 08:47:56;;;;;;;;;;;;;;;26.43;58.60;97276.28;600511;236;67119;-61
2021/12/13 08:50:28;;;;;;;;;;;;;;;26.43;56.90;97281.67;597316;237;64981;-59
2021/12/13 08:52:59;;;;;;;;;;;;;;;26.43;58.01;97276.28;602464;235;67313;-59
2021/12/13 08:55:28;;;;;;;;;;;;;;;26.43;58.10;97276.28;596953;235;66993;-59
2021/12/13 08:58:14;;;;;;;;;;;;;;;26.45;57.92;97273.30;600665;235;63861;-59
2021/12/13 09:00:46;;;;;;;;;;;;;;;26.45;58.81;97274.09;603159;235;67180;-62
2021/12/13 09:03:15;;;;;;;;;;;;;;;26.40;58.98;97273.41;603057;235;66982;-64
2021/12/13 09:05:47;;;;;;;;;;;;;;;26.41;57.85;97269.59;603045;235;64767;-60
2021/12/13 09:08:14;;;;;;;;;;;;;;;26.41;58.91;97269.59;602849;235;68025;-62
2021/12/13 09:10:50;;;;;;;;;;;;;;;26.45;57.32;97273.30;603055;235;64486;-61
2021/12/13 09:13:19;;;;;;;;;;;;;;;26.46;57.07;97277.58;603050;235;65210;-60
2021/12/13 09:15:49;;;;;;;;;;;;;;;26.43;57.61;97278.19;603074;235;67265;-61
2021/12/13 09:18:21;;;;;;;;;;;;;;;26.45;58.51;97273.30;603026;235;65213;-60
2021/12/13 09:20:49;;;;;;;;;;;;;;;26.44;58.60;97266.33;603138;235;62890;-60
2021/12/13 09:23:18;;;;;;;;;;;;;;;26.44;57.29;97260.94;603007;235;65153;-63
2021/12/13 09:25:48;;;;;;;;;;;;;;;26.41;56.52;97269.59;603075;235;64739;-63
2021/12/13 09:28:26;;;;;;;;;;;;;;;26.44;57.74;97269.81;602999;235;62737;-63
2021/12/13 09:30:55;;;;;;;;;;;;;;;26.45;58.10;97265.22;603079;235;67090;-63
2021/12/13 09:33:30;;;;;;;;;;;;;;;26.48;56.93;97253.84;603105;235;66660;-62
2021/12/13 09:36:00;;;;;;;;;;;;;;;26.48;57.23;97254.63;603141;235;66081;-65
2021/12/13 09:38:29;;;;;;;;;;;;;;;26.50;56.99;97257.03;603121;235;66536;-62
2021/12/13 09:41:01;;;;;;;;;;;;;;;26.51;56.37;97247.88;603138;235;66756;-63
2021/12/13 09:43:42;;;;;;;;;;;;;;;26.52;57.53;97244.89;602796;235;64704;-63
2021/12/13 09:46:11;;;;;;;;;;;;;;;26.50;56.21;97244.35;603120;235;67306;-62
2021/12/13 09:48:41;;;;;;;;;;;;;;;26.53;56.20;97245.68;603108;235;66761;-62
2021/12/13 09:51:10;;;;;;;;;;;;;;;26.53;57.44;97246.47;603160;235;64869;-62
2021/12/13 09:53:39;;;;;;;;;;;;;;;26.48;58.16;97243.05;602834;235;66970;-65
2021/12/13 09:56:09;;;;;;;;;;;;;;;26.47;57.25;97239.57;603099;235;66870;-63
2021/12/13 09:58:44;;;;;;;;;;;;;;;26.46;57.62;97237.16;602880;235;62641;-63
2021/12/13 10:01:20;;;;;;;;;;;;;;;26.50;59.39;97243.56;602255;235;67535;-62
2021/12/13 10:03:52;;;;;;;;;;;;;;;26.50;57.52;97235.47;602554;235;67049;-64
2021/12/13 10:06:23;;;;;;;;;;;;;;;26.52;59.23;97241.40;601057;235;41979;-63
2021/12/13 10:08:52;;;;;;;;;;;;;;;26.50;57.51;97232.78;602889;235;64750;-62
2021/12/13 10:11:24;;;;;;;;;;;;;;;26.53;58.48;97234.90;603166;235;67292;-62
2021/12/13 10:13:52;;;;;;;;;;;;;;;26.55;58.45;97222.72;603064;235;65779;-63
2021/12/13 10:16:21;;;;;;;;;;;;;;;26.55;57.25;97230.80;603074;235;67224;-64
2021/12/13 10:18:50;;;;;;;;;;;;;;;26.57;58.71;97225.09;603065;235;65570;-62
2021/12/13 10:21:21;;;;;;;;;;;;;;;26.57;57.91;97233.18;603137;235;65116;-67
2021/12/13 10:23:50;;;;;;;;;;;;;;;26.59;58.85;97230.98;603130;235;67342;-63
2021/12/13 10:26:20;;;;;;;;;;;;;;;26.58;58.89;97223.22;603056;235;44140;-62
2021/12/13 10:28:55;;;;;;;;;;;;;;;26.59;58.15;97230.98;602519;235;65048;-63
2021/12/13 10:31:25;;;;;;;;;;;;;;;26.62;59.84;97227.69;602825;235;67291;-63
2021/12/13 10:33:54;;;;;;;;;;;;;;;26.64;59.20;97225.48;603014;235;67379;-63
2021/12/13 10:36:28;;;;;;;;;;;;;;;26.64;58.45;97230.88;602904;234;65104;-60
2021/12/13 10:38:58;;;;;;;;;;;;;;;26.66;59.26;97230.59;603175;235;48332;-63
2021/12/13 10:41:28;;;;;;;;;;;;;;;26.68;60.45;97229.19;603108;235;67017;-64
2021/12/13 10:43:56;;;;;;;;;;;;;;;26.65;59.49;97226.28;602680;235;64914;-67
2021/12/13 10:46:26;;;;;;;;;;;;;;;26.66;58.53;97225.99;603044;235;67197;-64
2021/12/13 10:48:55;;;;;;;;;;;;;;;26.66;59.84;97227.90;602656;235;64622;-68
2021/12/13 10:51:23;;;;;;;;;;;;;;;26.66;59.62;97222.51;603053;235;63028;-64
2021/12/13 10:53:52;;;;;;;;;;;;;;;26.69;58.92;97228.08;603146;235;64708;-64
2021/12/13 10:56:21;;;;;;;;;;;;;;;26.67;59.51;97219.49;603115;235;64820;-63
2021/12/13 10:58:50;;;;;;;;;;;;;;;26.69;59.40;97214.60;603633;235;64967;-59
2021/12/13 11:01:28;;;;;;;;;;;;;;;26.71;57.45;97212.41;603977;235;67834;-61
2021/12/13 11:03:57;;;;;;;;;;;;;;;26.73;56.14;97218.27;603735;235;65168;-62
2021/12/13 11:06:25;;;;;;;;;;;;;;;26.72;55.86;97211.30;607474;233;63860;-62
2021/12/13 11:08:53;;;;;;;;;;;;;;;26.73;57.02;97206.70;607426;233;64900;-62
2021/12/13 11:11:31;;;;;;;;;;;;;;;26.76;56.60;97206.08;607335;233;67037;-63
2021/12/13 11:14:00;;;;;;;;;;;;;;;26.77;56.57;97205.00;607175;233;65788;-62
2021/12/13 11:16:29;;;;;;;;;;;;;;;26.80;56.96;97201.69;607497;233;67177;-62
2021/12/13 11:18:57;;;;;;;;;;;;;;;26.82;57.48;97194.11;607256;231;66727;-60
2021/12/13 11:21:27;;;;;;;;;;;;;;;26.82;57.89;97193.28;607397;233;65077;-63
2021/12/13 11:23:55;;;;;;;;;;;;;;;26.84;57.50;97186.48;607372;233;67198;-61
2021/12/13 11:26:24;;;;;;;;;;;;;;;26.87;56.85;97187.77;607419;233;66909;-63
2021/12/13 11:28:53;;;;;;;;;;;;;;;26.88;56.54;97192.88;607385;233;65068;-65
2021/12/13 11:31:25;;;;;;;;;;;;;;;26.90;56.32;97187.98;607391;233;64994;-64
2021/12/13 11:34:04;;;;;;;;;;;;;;;26.94;56.46;97190.86;606488;233;67019;-56
2021/12/13 11:36:42;;;;;;;;;;;;;;;27.00;55.54;97184.23;607446;233;62814;-63
2021/12/13 11:39:14;;;;;;;;;;;;;;;27.02;54.90;97184.73;607383;233;67219;-63
2021/12/13 11:41:49;;;;;;;;;;;;;;;27.14;54.97;97184.96;607144;233;67976;-65
2021/12/13 11:44:19;;;;;;;;;;;;;;;27.20;55.81;97183.78;607115;233;65239;-64
2021/12/13 11:46:48;;;;;;;;;;;;;;;27.20;55.59;97181.09;607408;233;67167;-62
2021/12/13 11:49:17;;;;;;;;;;;;;;;27.24;56.82;97178.56;606797;233;67333;-63
2021/12/13 11:51:54;;;;;;;;;;;;;;;27.30;58.25;97174.63;607347;233;65043;-64
2021/12/13 11:54:39;;;;;;;;;;;;;;;27.40;58.29;97177.08;607315;233;67213;-63
2021/12/13 11:57:25;;;;;;;;;;;;;;;27.42;59.28;97176.78;607556;233;66856;-63
2021/12/13 12:00:02;;;;;;;;;;;;;;;27.39;58.52;97175.49;607966;233;63017;-62
2021/12/13 12:02:50;;;;;;;;;;;;;;;27.37;58.26;97177.70;601680;235;49350;-63
2021/12/13 12:05:35;;;;;;;;;;;;;;;27.37;58.77;97166.11;601456;236;64838;-59
2021/12/13 12:08:25;;;;;;;;;;;;;;;27.37;58.70;97166.11;608126;233;63015;-70
2021/12/13 12:10:59;;;;;;;;;;;;;;;27.32;58.43;97175.13;607573;233;66858;-72
2021/12/13 12:13:33;;;;;;;;;;;;;;;27.32;57.73;97174.33;608047;233;67806;-63
2021/12/13 12:16:03;;;;;;;;;;;;;;;27.32;56.76;97185.12;601667;235;65343;-62
2021/12/13 12:18:32;;;;;;;;;;;;;;;27.28;57.00;97176.04;608596;233;67468;-62
2021/12/13 12:21:17;;;;;;;;;;;;;;;27.28;57.07;97178.73;608463;233;67029;-63
2021/12/13 12:23:49;;;;;;;;;;;;;;;27.31;56.51;97173.54;608410;233;63129;-62
2021/12/13 12:26:14;;;;;;;;;;;;;;;27.35;56.17;97177.20;608497;233;64958;-63
2021/12/13 12:28:43;;;;;;;;;;;;;;;27.36;56.10;97181.48;608589;231;64995;-65
2021/12/13 12:31:12;;;;;;;;;;;;;;;27.34;56.06;97181.02;608369;232;44017;-63
2021/12/13 12:33:42;;;;;;;;;;;;;;;27.36;56.07;97178.78;608015;233;67487;-60
2021/12/13 12:36:11;;;;;;;;;;;;;;;27.35;56.07;97181.80;608087;233;64714;-60
2021/12/13 12:38:41;;;;;;;;;;;;;;;27.34;56.25;97178.31;607633;233;62973;-63
2021/12/13 12:41:16;;;;;;;;;;;;;;;27.36;56.24;97180.69;607213;233;67163;-63
2021/12/13 12:43:51;;;;;;;;;;;;;;;27.35;56.15;97187.20;608046;233;66995;-62
2021/12/13 12:46:16;;;;;;;;;;;;;;;27.35;56.08;97189.91;607883;233;65592;-63
2021/12/13 12:48:48;;;;;;;;;;;;;;;27.36;56.20;97191.48;608003;233;67043;-63
2021/12/13 12:51:19;;;;;;;;;;;;;;;27.36;56.42;97186.09;607717;233;64837;-63
2021/12/13 12:53:48;;;;;;;;;;;;;;;27.35;56.47;97193.39;607136;233;64999;-63
2021/12/13 12:56:29;;;;;;;;;;;;;;;27.36;56.71;97194.18;601831;235;67246;-62
2021/12/13 12:59:04;;;;;;;;;;;;;;;27.35;56.75;97196.09;608563;233;64664;-66
2021/12/13 13:01:36;;;;;;;;;;;;;;;27.37;57.26;97203.89;608465;233;65077;-64
2021/12/13 13:04:09;;;;;;;;;;;;;;;27.36;56.43;97208.47;608479;233;67209;-62
2021/12/13 13:06:36;;;;;;;;;;;;;;;27.36;56.81;97213.86;608530;233;67389;-62
2021/12/13 13:09:05;;;;;;;;;;;;;;;27.36;56.80;97216.56;608619;233;65063;-62
2021/12/13 13:11:35;;;;;;;;;;;;;;;27.36;56.83;97229.27;608322;233;64640;-65
2021/12/13 13:14:09;;;;;;;;;;;;;;;27.37;57.32;97228.18;608480;233;63906;-65
2021/12/13 13:16:34;;;;;;;;;;;;;;;27.35;57.27;97224.98;601597;235;62997;-61
2021/12/13 13:19:03;;;;;;;;;;;;;;;27.37;58.32;97231.67;608588;233;67295;-60